sensor_id;sensor_type;location;lat;lon;timestamp;temperature;humidity
48019;DHT22;33786;48.690;9.562;2023-05-28T00:02:35;9.60;99.90
48019;DHT22;33786;48.690;9.562;2023-05-28T00:05:02;9.50;99.90
48019;DHT22;33786;48.690;9.562;2023-05-28T00:07:29;9.50;99.90
48019;DHT22;33786;48.690;9.562;2023-05-28T00:09:57;9.50;99.90
48019;DHT22;33786;48.690;9.562;2023-05-28T00:12:24;9.50;99.90
48019;DHT22;33786;48.690;9.562;2023-05-28T00:14:51;9.40;99.90
48019;DHT22;33786;48.690;9.562;2023-05-28T00:17:18;9.30;99.90
48019;DHT22;33786;48.690;9.562;2023-05-28T00:19:45;9.30;99.90
48019;DHT22;33786;48.690;9.562;2023-05-28T00:22:12;9.30;99.90
48019;DHT22;33786;48.690;9.562;2023-05-28T00:24:39;9.20;99.90
48019;DHT22;33786;48.690;9.562;2023-05-28T00:27:06;9.20;99.90
48019;DHT22;33786;48.690;9.562;2023-05-28T00:29:32;9.20;99.90
48019;DHT22;33786;48.690;9.562;2023-05-28T00:31:59;9.10;99.90
48019;DHT22;33786;48.690;9.562;2023-05-28T00:34:26;9.10;99.90
48019;DHT22;33786;48.690;9.562;2023-05-28T00:36:53;9.10;99.90
48019;DHT22;33786;48.690;9.562;2023-05-28T00:39:20;9.10;99.90
48019;DHT22;33786;48.690;9.562;2023-05-28T00:41:47;9.10;99.90
48019;DHT22;33786;48.690;9.562;2023-05-28T00:44:13;9.00;99.90
48019;DHT22;33786;48.690;9.562;2023-05-28T00:46:41;9.00;99.90
48019;DHT22;33786;48.690;9.562;2023-05-28T00:49:09;9.00;99.90
48019;DHT22;33786;48.690;9.562;2023-05-28T00:51:36;9.00;99.90
48019;DHT22;33786;48.690;9.562;2023-05-28T00:54:03;8.90;99.90
48019;DHT22;33786;48.690;9.562;2023-05-28T00:56:30;8.90;99.90
48019;DHT22;33786;48.690;9.562;2023-05-28T00:58:58;8.90;99.90
48019;DHT22;33786;48.690;9.562;2023-05-28T01:01:26;8.90;99.90
48019;DHT22;33786;48.690;9.562;2023-05-28T01:03:53;8.90;99.90
48019;DHT22;33786;48.690;9.562;2023-05-28T01:06:20;8.90;99.90
48019;DHT22;33786;48.690;9.562;2023-05-28T01:08:48;8.80;99.90
48019;DHT22;33786;48.690;9.562;2023-05-28T01:11:16;8.70;99.90
48019;DHT22;33786;48.690;9.562;2023-05-28T01:13:44;8.70;99.90
48019;DHT22;33786;48.690;9.562;2023-05-28T01:16:11;8.70;99.90
48019;DHT22;33786;48.690;9.562;2023-05-28T01:18:38;8.70;99.90
48019;DHT22;33786;48.690;9.562;2023-05-28T01:21:11;8.50;99.90
48019;DHT22;33786;48.690;9.562;2023-05-28T01:23:48;8.50;99.90
48019;DHT22;33786;48.690;9.562;2023-05-28T01:26:15;8.60;99.90
48019;DHT22;33786;48.690;9.562;2023-05-28T01:28:45;8.60;99.90
48019;DHT22;33786;48.690;9.562;2023-05-28T01:31:13;8.50;99.90
48019;DHT22;33786;48.690;9.562;2023-05-28T01:33:41;8.50;99.90
48019;DHT22;33786;48.690;9.562;2023-05-28T01:36:16;8.40;99.90
48019;DHT22;33786;48.690;9.562;2023-05-28T01:38:44;8.40;99.90
48019;DHT22;33786;48.690;9.562;2023-05-28T01:41:13;8.40;99.90
48019;DHT22;33786;48.690;9.562;2023-05-28T01:43:40;8.30;99.90
48019;DHT22;33786;48.690;9.562;2023-05-28T01:46:08;8.40;99.90
48019;DHT22;33786;48.690;9.562;2023-05-28T01:48:35;8.30;99.90
48019;DHT22;33786;48.690;9.562;2023-05-28T01:51:03;8.30;99.90
48019;DHT22;33786;48.690;9.562;2023-05-28T01:53:30;8.30;99.90
48019;DHT22;33786;48.690;9.562;2023-05-28T01:55:56;8.20;99.90
48019;DHT22;33786;48.690;9.562;2023-05-28T01:58:23;8.10;99.90
48019;DHT22;33786;48.690;9.562;2023-05-28T02:01:13;8.00;99.90
48019;DHT22;33786;48.690;9.562;2023-05-28T02:03:37;8.10;99.90
48019;DHT22;33786;48.690;9.562;2023-05-28T02:06:04;8.10;99.90
48019;DHT22;33786;48.690;9.562;2023-05-28T02:08:31;8.10;99.90
48019;DHT22;33786;48.690;9.562;2023-05-28T02:10:57;8.10;99.90
48019;DHT22;33786;48.690;9.562;2023-05-28T02:13:24;8.10;99.90
48019;DHT22;33786;48.690;9.562;2023-05-28T02:15:54;8.20;99.90
48019;DHT22;33786;48.690;9.562;2023-05-28T02:18:21;8.10;99.90
48019;DHT22;33786;48.690;9.562;2023-05-28T02:20:48;8.10;99.90
48019;DHT22;33786;48.690;9.562;2023-05-28T02:23:15;8.10;99.90
48019;DHT22;33786;48.690;9.562;2023-05-28T02:25:42;8.00;99.90
48019;DHT22;33786;48.690;9.562;2023-05-28T02:28:09;8.00;99.90
48019;DHT22;33786;48.690;9.562;2023-05-28T02:30:36;7.90;99.90
48019;DHT22;33786;48.690;9.562;2023-05-28T02:33:02;7.90;99.90
48019;DHT22;33786;48.690;9.562;2023-05-28T02:35:30;7.80;99.90
48019;DHT22;33786;48.690;9.562;2023-05-28T02:37:57;7.80;99.90
48019;DHT22;33786;48.690;9.562;2023-05-28T02:40:24;7.80;99.90
48019;DHT22;33786;48.690;9.562;2023-05-28T02:42:50;7.80;99.90
48019;DHT22;33786;48.690;9.562;2023-05-28T02:45:17;7.70;99.90
48019;DHT22;33786;48.690;9.562;2023-05-28T02:47:44;7.70;99.90
48019;DHT22;33786;48.690;9.562;2023-05-28T02:50:11;7.80;99.90
48019;DHT22;33786;48.690;9.562;2023-05-28T02:52:38;7.70;99.90
48019;DHT22;33786;48.690;9.562;2023-05-28T02:55:04;7.70;99.90
48019;DHT22;33786;48.690;9.562;2023-05-28T02:57:31;7.70;99.90
48019;DHT22;33786;48.690;9.562;2023-05-28T02:59:58;7.60;99.90
48019;DHT22;33786;48.690;9.562;2023-05-28T03:02:25;7.50;99.90
48019;DHT22;33786;48.690;9.562;2023-05-28T03:04:52;7.50;99.90
48019;DHT22;33786;48.690;9.562;2023-05-28T03:07:20;7.50;99.90
48019;DHT22;33786;48.690;9.562;2023-05-28T03:09:46;7.50;99.90
48019;DHT22;33786;48.690;9.562;2023-05-28T03:12:13;7.50;99.90
48019;DHT22;33786;48.690;9.562;2023-05-28T03:14:40;7.50;99.90
48019;DHT22;33786;48.690;9.562;2023-05-28T03:17:07;7.40;99.90
48019;DHT22;33786;48.690;9.562;2023-05-28T03:19:33;7.40;99.90
48019;DHT22;33786;48.690;9.562;2023-05-28T03:22:03;7.40;99.90
48019;DHT22;33786;48.690;9.562;2023-05-28T03:24:29;7.40;99.90
48019;DHT22;33786;48.690;9.562;2023-05-28T03:26:57;7.30;99.90
48019;DHT22;33786;48.690;9.562;2023-05-28T03:29:24;7.40;99.90
48019;DHT22;33786;48.690;9.562;2023-05-28T03:31:51;7.40;99.90
48019;DHT22;33786;48.690;9.562;2023-05-28T03:34:17;7.40;99.90
48019;DHT22;33786;48.690;9.562;2023-05-28T03:36:44;7.40;99.90
48019;DHT22;33786;48.690;9.562;2023-05-28T03:39:11;7.50;99.90
48019;DHT22;33786;48.690;9.562;2023-05-28T03:41:38;7.50;99.90
48019;DHT22;33786;48.690;9.562;2023-05-28T03:44:05;7.60;99.90
48019;DHT22;33786;48.690;9.562;2023-05-28T03:46:32;7.50;99.90
48019;DHT22;33786;48.690;9.562;2023-05-28T03:48:59;7.60;99.90
48019;DHT22;33786;48.690;9.562;2023-05-28T03:51:25;7.60;99.90
48019;DHT22;33786;48.690;9.562;2023-05-28T03:53:54;7.70;99.90
48019;DHT22;33786;48.690;9.562;2023-05-28T03:56:21;8.10;99.90
48019;DHT22;33786;48.690;9.562;2023-05-28T03:58:49;8.50;99.90
48019;DHT22;33786;48.690;9.562;2023-05-28T04:01:16;9.10;99.90
48019;DHT22;33786;48.690;9.562;2023-05-28T04:03:43;9.90;99.90
48019;DHT22;33786;48.690;9.562;2023-05-28T04:06:10;10.50;99.90
48019;DHT22;33786;48.690;9.562;2023-05-28T04:08:36;11.10;99.90
48019;DHT22;33786;48.690;9.562;2023-05-28T04:11:03;11.60;99.90
48019;DHT22;33786;48.690;9.562;2023-05-28T04:13:30;12.10;99.90
48019;DHT22;33786;48.690;9.562;2023-05-28T04:15:57;12.50;99.90
48019;DHT22;33786;48.690;9.562;2023-05-28T04:18:24;13.00;99.90
48019;DHT22;33786;48.690;9.562;2023-05-28T04:20:51;13.40;99.90
48019;DHT22;33786;48.690;9.562;2023-05-28T04:23:18;13.70;99.40
48019;DHT22;33786;48.690;9.562;2023-05-28T04:25:45;14.10;98.40
48019;DHT22;33786;48.690;9.562;2023-05-28T04:28:12;14.70;97.70
48019;DHT22;33786;48.690;9.562;2023-05-28T04:30:40;15.50;96.10
48019;DHT22;33786;48.690;9.562;2023-05-28T04:33:07;16.00;94.90
48019;DHT22;33786;48.690;9.562;2023-05-28T04:35:35;16.20;94.60
48019;DHT22;33786;48.690;9.562;2023-05-28T04:38:02;16.60;93.80
48019;DHT22;33786;48.690;9.562;2023-05-28T04:40:28;17.10;92.90
48019;DHT22;33786;48.690;9.562;2023-05-28T04:42:55;17.80;91.90
48019;DHT22;33786;48.690;9.562;2023-05-28T04:45:22;18.30;91.10
48019;DHT22;33786;48.690;9.562;2023-05-28T04:47:49;18.80;90.30
48019;DHT22;33786;48.690;9.562;2023-05-28T04:50:17;19.50;88.40
48019;DHT22;33786;48.690;9.562;2023-05-28T04:52:44;19.90;86.80
48019;DHT22;33786;48.690;9.562;2023-05-28T04:55:10;20.70;85.70
48019;DHT22;33786;48.690;9.562;2023-05-28T04:57:38;21.40;83.60
48019;DHT22;33786;48.690;9.562;2023-05-28T05:00:06;21.80;82.20
48019;DHT22;33786;48.690;9.562;2023-05-28T05:02:39;22.00;80.70
48019;DHT22;33786;48.690;9.562;2023-05-28T05:05:08;22.30;80.00
48019;DHT22;33786;48.690;9.562;2023-05-28T05:07:35;22.90;78.50
48019;DHT22;33786;48.690;9.562;2023-05-28T05:10:07;23.60;75.80
48019;DHT22;33786;48.690;9.562;2023-05-28T05:12:35;23.90;76.50
48019;DHT22;33786;48.690;9.562;2023-05-28T05:15:05;24.60;74.00
48019;DHT22;33786;48.690;9.562;2023-05-28T05:17:32;25.00;72.80
48019;DHT22;33786;48.690;9.562;2023-05-28T05:20:00;25.20;72.20
48019;DHT22;33786;48.690;9.562;2023-05-28T05:22:27;26.30;68.70
48019;DHT22;33786;48.690;9.562;2023-05-28T05:24:54;26.80;66.50
48019;DHT22;33786;48.690;9.562;2023-05-28T05:27:21;27.20;64.80
48019;DHT22;33786;48.690;9.562;2023-05-28T05:29:48;27.30;63.70
48019;DHT22;33786;48.690;9.562;2023-05-28T05:32:14;27.50;64.20
48019;DHT22;33786;48.690;9.562;2023-05-28T05:34:41;28.20;63.30
48019;DHT22;33786;48.690;9.562;2023-05-28T05:37:08;27.40;62.40
48019;DHT22;33786;48.690;9.562;2023-05-28T05:39:35;27.80;61.80
48019;DHT22;33786;48.690;9.562;2023-05-28T05:42:02;28.50;61.00
48019;DHT22;33786;48.690;9.562;2023-05-28T05:44:28;28.60;60.10
48019;DHT22;33786;48.690;9.562;2023-05-28T05:46:55;28.50;61.20
48019;DHT22;33786;48.690;9.562;2023-05-28T05:49:22;29.40;58.30
48019;DHT22;33786;48.690;9.562;2023-05-28T05:51:49;29.70;58.60
48019;DHT22;33786;48.690;9.562;2023-05-28T05:54:16;30.20;58.30
48019;DHT22;33786;48.690;9.562;2023-05-28T05:56:42;30.00;58.00
48019;DHT22;33786;48.690;9.562;2023-05-28T05:59:09;29.20;58.60
48019;DHT22;33786;48.690;9.562;2023-05-28T06:01:36;29.30;58.80
48019;DHT22;33786;48.690;9.562;2023-05-28T06:04:03;29.80;57.30
48019;DHT22;33786;48.690;9.562;2023-05-28T06:06:30;30.00;57.80
48019;DHT22;33786;48.690;9.562;2023-05-28T06:08:56;30.30;57.20
48019;DHT22;33786;48.690;9.562;2023-05-28T06:11:23;30.80;55.90
48019;DHT22;33786;48.690;9.562;2023-05-28T06:13:52;30.80;56.20
48019;DHT22;33786;48.690;9.562;2023-05-28T06:16:18;30.80;56.10
48019;DHT22;33786;48.690;9.562;2023-05-28T06:18:46;30.30;57.70
48019;DHT22;33786;48.690;9.562;2023-05-28T06:21:13;30.20;55.90
48019;DHT22;33786;48.690;9.562;2023-05-28T06:23:40;30.30;55.90
48019;DHT22;33786;48.690;9.562;2023-05-28T06:26:07;30.60;56.30
48019;DHT22;33786;48.690;9.562;2023-05-28T06:28:34;30.70;56.10
48019;DHT22;33786;48.690;9.562;2023-05-28T06:31:01;31.00;54.80
48019;DHT22;33786;48.690;9.562;2023-05-28T06:33:29;30.30;55.00
48019;DHT22;33786;48.690;9.562;2023-05-28T06:35:56;30.10;55.80
48019;DHT22;33786;48.690;9.562;2023-05-28T06:38:22;30.60;55.20
48019;DHT22;33786;48.690;9.562;2023-05-28T06:40:49;31.10;54.30
48019;DHT22;33786;48.690;9.562;2023-05-28T06:43:16;30.80;54.80
48019;DHT22;33786;48.690;9.562;2023-05-28T06:45:43;31.20;53.70
48019;DHT22;33786;48.690;9.562;2023-05-28T06:48:10;32.60;53.30
48019;DHT22;33786;48.690;9.562;2023-05-28T06:50:37;32.40;53.10
48019;DHT22;33786;48.690;9.562;2023-05-28T06:53:03;32.30;52.30
48019;DHT22;33786;48.690;9.562;2023-05-28T06:55:30;32.90;52.20
48019;DHT22;33786;48.690;9.562;2023-05-28T06:57:57;33.10;52.20
48019;DHT22;33786;48.690;9.562;2023-05-28T07:00:24;33.20;52.20
48019;DHT22;33786;48.690;9.562;2023-05-28T07:02:50;33.60;51.00
48019;DHT22;33786;48.690;9.562;2023-05-28T07:05:17;33.30;51.90
48019;DHT22;33786;48.690;9.562;2023-05-28T07:07:44;33.60;50.50
48019;DHT22;33786;48.690;9.562;2023-05-28T07:10:11;33.50;51.30
48019;DHT22;33786;48.690;9.562;2023-05-28T07:12:41;33.30;50.90
48019;DHT22;33786;48.690;9.562;2023-05-28T07:15:08;32.60;51.10
48019;DHT22;33786;48.690;9.562;2023-05-28T07:17:36;32.70;50.80
48019;DHT22;33786;48.690;9.562;2023-05-28T07:20:03;32.60;51.30
48019;DHT22;33786;48.690;9.562;2023-05-28T07:22:32;32.50;51.70
48019;DHT22;33786;48.690;9.562;2023-05-28T07:24:59;32.20;51.80
48019;DHT22;33786;48.690;9.562;2023-05-28T07:27:26;32.00;52.00
48019;DHT22;33786;48.690;9.562;2023-05-28T07:29:53;31.60;52.30
48019;DHT22;33786;48.690;9.562;2023-05-28T07:32:20;32.50;51.20
48019;DHT22;33786;48.690;9.562;2023-05-28T07:34:47;32.60;51.90
48019;DHT22;33786;48.690;9.562;2023-05-28T07:37:14;31.40;52.10
48019;DHT22;33786;48.690;9.562;2023-05-28T07:39:41;31.80;52.50
48019;DHT22;33786;48.690;9.562;2023-05-28T07:42:08;32.10;52.40
48019;DHT22;33786;48.690;9.562;2023-05-28T07:44:34;31.30;52.30
48019;DHT22;33786;48.690;9.562;2023-05-28T07:47:01;31.70;52.30
48019;DHT22;33786;48.690;9.562;2023-05-28T07:49:28;31.80;52.40
48019;DHT22;33786;48.690;9.562;2023-05-28T07:51:55;30.90;52.70
48019;DHT22;33786;48.690;9.562;2023-05-28T07:54:22;30.10;53.70
48019;DHT22;33786;48.690;9.562;2023-05-28T07:56:49;30.50;52.90
48019;DHT22;33786;48.690;9.562;2023-05-28T07:59:16;30.10;53.90
48019;DHT22;33786;48.690;9.562;2023-05-28T08:01:44;30.00;52.70
48019;DHT22;33786;48.690;9.562;2023-05-28T08:04:12;29.10;54.10
48019;DHT22;33786;48.690;9.562;2023-05-28T08:06:39;29.40;54.50
48019;DHT22;33786;48.690;9.562;2023-05-28T08:09:06;29.10;55.40
48019;DHT22;33786;48.690;9.562;2023-05-28T08:11:33;29.40;54.70
48019;DHT22;33786;48.690;9.562;2023-05-28T08:13:59;29.30;54.40
48019;DHT22;33786;48.690;9.562;2023-05-28T08:16:26;28.80;55.40
48019;DHT22;33786;48.690;9.562;2023-05-28T08:18:53;28.80;56.10
48019;DHT22;33786;48.690;9.562;2023-05-28T08:21:20;28.50;54.70
48019;DHT22;33786;48.690;9.562;2023-05-28T08:23:46;27.90;56.00
48019;DHT22;33786;48.690;9.562;2023-05-28T08:26:13;27.80;56.10
48019;DHT22;33786;48.690;9.562;2023-05-28T08:28:40;27.20;56.40
48019;DHT22;33786;48.690;9.562;2023-05-28T08:31:07;27.40;57.40
48019;DHT22;33786;48.690;9.562;2023-05-28T08:33:33;27.50;57.00
48019;DHT22;33786;48.690;9.562;2023-05-28T08:36:00;27.90;56.40
48019;DHT22;33786;48.690;9.562;2023-05-28T08:38:28;27.60;57.90
48019;DHT22;33786;48.690;9.562;2023-05-28T08:40:55;27.40;57.70
48019;DHT22;33786;48.690;9.562;2023-05-28T08:43:22;27.60;57.60
48019;DHT22;33786;48.690;9.562;2023-05-28T08:45:52;27.00;57.10
48019;DHT22;33786;48.690;9.562;2023-05-28T08:48:20;26.70;60.20
48019;DHT22;33786;48.690;9.562;2023-05-28T08:50:48;26.60;58.70
48019;DHT22;33786;48.690;9.562;2023-05-28T08:53:16;26.50;58.30
48019;DHT22;33786;48.690;9.562;2023-05-28T08:55:44;26.30;58.80
48019;DHT22;33786;48.690;9.562;2023-05-28T08:58:11;26.00;58.00
48019;DHT22;33786;48.690;9.562;2023-05-28T09:00:38;25.90;58.90
48019;DHT22;33786;48.690;9.562;2023-05-28T09:03:05;26.00;58.60
48019;DHT22;33786;48.690;9.562;2023-05-28T09:05:35;25.80;58.30
48019;DHT22;33786;48.690;9.562;2023-05-28T09:08:07;25.80;58.20
48019;DHT22;33786;48.690;9.562;2023-05-28T09:10:36;26.30;57.90
48019;DHT22;33786;48.690;9.562;2023-05-28T09:13:03;25.80;58.50
48019;DHT22;33786;48.690;9.562;2023-05-28T09:15:33;25.60;59.30
48019;DHT22;33786;48.690;9.562;2023-05-28T09:18:03;25.80;60.10
48019;DHT22;33786;48.690;9.562;2023-05-28T09:20:30;25.60;59.10
48019;DHT22;33786;48.690;9.562;2023-05-28T09:25:26;25.20;59.30
48019;DHT22;33786;48.690;9.562;2023-05-28T09:27:53;24.90;58.90
48019;DHT22;33786;48.690;9.562;2023-05-28T09:30:20;24.30;60.10
48019;DHT22;33786;48.690;9.562;2023-05-28T09:33:10;24.40;59.60
48019;DHT22;33786;48.690;9.562;2023-05-28T09:35:36;24.40;59.80
48019;DHT22;33786;48.690;9.562;2023-05-28T09:38:03;24.80;60.20
48019;DHT22;33786;48.690;9.562;2023-05-28T09:40:30;25.30;59.50
48019;DHT22;33786;48.690;9.562;2023-05-28T09:42:57;25.70;60.50
48019;DHT22;33786;48.690;9.562;2023-05-28T09:45:24;25.70;59.50
48019;DHT22;33786;48.690;9.562;2023-05-28T09:47:51;25.70;58.10
48019;DHT22;33786;48.690;9.562;2023-05-28T09:50:18;25.80;60.10
48019;DHT22;33786;48.690;9.562;2023-05-28T09:52:46;26.30;60.30
48019;DHT22;33786;48.690;9.562;2023-05-28T09:55:17;26.50;59.70
48019;DHT22;33786;48.690;9.562;2023-05-28T09:57:58;26.80;59.60
48019;DHT22;33786;48.690;9.562;2023-05-28T10:00:30;26.40;57.40
48019;DHT22;33786;48.690;9.562;2023-05-28T10:03:00;26.20;56.70
48019;DHT22;33786;48.690;9.562;2023-05-28T10:05:31;26.20;59.60
48019;DHT22;33786;48.690;9.562;2023-05-28T10:07:59;26.00;59.10
48019;DHT22;33786;48.690;9.562;2023-05-28T10:10:27;26.30;58.70
48019;DHT22;33786;48.690;9.562;2023-05-28T10:12:55;26.30;58.20
48019;DHT22;33786;48.690;9.562;2023-05-28T10:15:23;26.40;58.00
48019;DHT22;33786;48.690;9.562;2023-05-28T10:17:50;26.60;59.20
48019;DHT22;33786;48.690;9.562;2023-05-28T10:20:17;26.90;63.80
48019;DHT22;33786;48.690;9.562;2023-05-28T10:22:45;27.20;57.90
48019;DHT22;33786;48.690;9.562;2023-05-28T10:25:11;27.00;57.90
48019;DHT22;33786;48.690;9.562;2023-05-28T10:27:45;26.60;57.10
48019;DHT22;33786;48.690;9.562;2023-05-28T10:33:02;26.20;57.50
48019;DHT22;33786;48.690;9.562;2023-05-28T10:35:29;25.90;58.40
48019;DHT22;33786;48.690;9.562;2023-05-28T10:38:04;26.10;60.00
48019;DHT22;33786;48.690;9.562;2023-05-28T10:40:32;26.70;59.50
48019;DHT22;33786;48.690;9.562;2023-05-28T10:42:59;27.10;57.90
48019;DHT22;33786;48.690;9.562;2023-05-28T10:45:35;27.00;59.20
48019;DHT22;33786;48.690;9.562;2023-05-28T10:48:03;27.20;58.20
48019;DHT22;33786;48.690;9.562;2023-05-28T10:50:30;27.30;56.90
48019;DHT22;33786;48.690;9.562;2023-05-28T10:53:03;27.30;56.00
48019;DHT22;33786;48.690;9.562;2023-05-28T10:55:52;27.20;55.30
48019;DHT22;33786;48.690;9.562;2023-05-28T10:58:24;26.80;57.30
48019;DHT22;33786;48.690;9.562;2023-05-28T11:00:51;26.70;57.10
48019;DHT22;33786;48.690;9.562;2023-05-28T11:03:37;26.40;58.40
48019;DHT22;33786;48.690;9.562;2023-05-28T11:06:04;26.30;59.50
48019;DHT22;33786;48.690;9.562;2023-05-28T11:08:31;27.10;57.50
48019;DHT22;33786;48.690;9.562;2023-05-28T11:10:58;27.10;56.60
48019;DHT22;33786;48.690;9.562;2023-05-28T11:13:24;27.20;55.30
48019;DHT22;33786;48.690;9.562;2023-05-28T11:15:52;26.90;56.60
48019;DHT22;33786;48.690;9.562;2023-05-28T11:18:20;26.90;58.00
48019;DHT22;33786;48.690;9.562;2023-05-28T11:20:46;27.10;59.40
48019;DHT22;33786;48.690;9.562;2023-05-28T11:23:14;26.60;55.80
48019;DHT22;33786;48.690;9.562;2023-05-28T11:25:45;26.30;56.20
48019;DHT22;33786;48.690;9.562;2023-05-28T11:28:12;26.60;57.20
48019;DHT22;33786;48.690;9.562;2023-05-28T11:30:39;26.80;56.50
48019;DHT22;33786;48.690;9.562;2023-05-28T11:33:06;26.60;57.50
48019;DHT22;33786;48.690;9.562;2023-05-28T11:35:33;26.40;57.40
48019;DHT22;33786;48.690;9.562;2023-05-28T11:38:00;25.90;57.60
48019;DHT22;33786;48.690;9.562;2023-05-28T11:40:32;25.80;57.30
48019;DHT22;33786;48.690;9.562;2023-05-28T11:42:59;26.10;56.80
48019;DHT22;33786;48.690;9.562;2023-05-28T11:45:27;26.50;55.90
48019;DHT22;33786;48.690;9.562;2023-05-28T11:47:53;26.70;56.60
48019;DHT22;33786;48.690;9.562;2023-05-28T11:50:21;27.00;56.10
48019;DHT22;33786;48.690;9.562;2023-05-28T11:52:49;27.30;56.90
48019;DHT22;33786;48.690;9.562;2023-05-28T11:55:15;26.90;54.80
48019;DHT22;33786;48.690;9.562;2023-05-28T11:57:50;26.10;56.30
48019;DHT22;33786;48.690;9.562;2023-05-28T12:00:16;26.00;56.50
48019;DHT22;33786;48.690;9.562;2023-05-28T12:02:49;26.30;56.80
48019;DHT22;33786;48.690;9.562;2023-05-28T12:05:16;26.00;57.40
48019;DHT22;33786;48.690;9.562;2023-05-28T12:07:44;26.20;57.10
48019;DHT22;33786;48.690;9.562;2023-05-28T12:10:15;26.00;56.70
48019;DHT22;33786;48.690;9.562;2023-05-28T12:12:45;26.20;59.50
48019;DHT22;33786;48.690;9.562;2023-05-28T12:15:12;26.60;59.10
48019;DHT22;33786;48.690;9.562;2023-05-28T12:17:39;27.10;57.30
48019;DHT22;33786;48.690;9.562;2023-05-28T12:20:28;26.80;56.10
48019;DHT22;33786;48.690;9.562;2023-05-28T12:25:26;25.80;57.20
48019;DHT22;33786;48.690;9.562;2023-05-28T12:27:53;26.00;56.50
48019;DHT22;33786;48.690;9.562;2023-05-28T12:30:20;26.70;56.40
48019;DHT22;33786;48.690;9.562;2023-05-28T12:32:46;26.50;55.90
48019;DHT22;33786;48.690;9.562;2023-05-28T12:35:13;26.10;56.90
48019;DHT22;33786;48.690;9.562;2023-05-28T12:37:40;26.30;58.30
48019;DHT22;33786;48.690;9.562;2023-05-28T12:40:07;26.80;56.60
48019;DHT22;33786;48.690;9.562;2023-05-28T12:42:33;26.90;55.20
48019;DHT22;33786;48.690;9.562;2023-05-28T12:45:00;26.60;54.30
48019;DHT22;33786;48.690;9.562;2023-05-28T12:47:27;26.20;55.40
48019;DHT22;33786;48.690;9.562;2023-05-28T12:49:54;26.00;55.90
48019;DHT22;33786;48.690;9.562;2023-05-28T12:52:20;26.20;55.40
48019;DHT22;33786;48.690;9.562;2023-05-28T12:54:47;26.40;55.10
48019;DHT22;33786;48.690;9.562;2023-05-28T12:57:15;26.40;54.50
48019;DHT22;33786;48.690;9.562;2023-05-28T12:59:42;26.20;55.50
48019;DHT22;33786;48.690;9.562;2023-05-28T13:02:08;26.10;53.80
48019;DHT22;33786;48.690;9.562;2023-05-28T13:04:36;25.70;54.30
48019;DHT22;33786;48.690;9.562;2023-05-28T13:07:03;25.90;56.10
48019;DHT22;33786;48.690;9.562;2023-05-28T13:09:30;26.00;54.70
48019;DHT22;33786;48.690;9.562;2023-05-28T13:11:57;26.50;56.30
48019;DHT22;33786;48.690;9.562;2023-05-28T13:14:23;26.50;55.00
48019;DHT22;33786;48.690;9.562;2023-05-28T13:16:50;26.50;55.00
48019;DHT22;33786;48.690;9.562;2023-05-28T13:19:17;26.90;53.70
48019;DHT22;33786;48.690;9.562;2023-05-28T13:21:43;27.10;55.90
48019;DHT22;33786;48.690;9.562;2023-05-28T13:24:10;26.90;55.20
48019;DHT22;33786;48.690;9.562;2023-05-28T13:26:38;26.50;53.40
48019;DHT22;33786;48.690;9.562;2023-05-28T13:29:05;26.50;54.00
48019;DHT22;33786;48.690;9.562;2023-05-28T13:31:32;26.50;55.20
48019;DHT22;33786;48.690;9.562;2023-05-28T13:33:59;26.50;53.90
48019;DHT22;33786;48.690;9.562;2023-05-28T13:36:27;26.20;54.60
48019;DHT22;33786;48.690;9.562;2023-05-28T13:38:54;26.60;54.10
48019;DHT22;33786;48.690;9.562;2023-05-28T13:41:22;26.70;54.20
48019;DHT22;33786;48.690;9.562;2023-05-28T13:43:51;26.90;55.70
48019;DHT22;33786;48.690;9.562;2023-05-28T13:46:22;26.50;54.50
48019;DHT22;33786;48.690;9.562;2023-05-28T13:48:53;26.20;54.40
48019;DHT22;33786;48.690;9.562;2023-05-28T13:51:20;26.20;54.30
48019;DHT22;33786;48.690;9.562;2023-05-28T13:53:47;26.20;53.40
48019;DHT22;33786;48.690;9.562;2023-05-28T13:56:14;26.40;55.20
48019;DHT22;33786;48.690;9.562;2023-05-28T13:58:41;26.40;53.80
48019;DHT22;33786;48.690;9.562;2023-05-28T14:01:08;26.00;51.50
48019;DHT22;33786;48.690;9.562;2023-05-28T14:03:35;25.50;52.30
48019;DHT22;33786;48.690;9.562;2023-05-28T14:06:02;25.80;52.80
48019;DHT22;33786;48.690;9.562;2023-05-28T14:08:30;26.10;52.50
48019;DHT22;33786;48.690;9.562;2023-05-28T14:10:57;26.30;51.30
48019;DHT22;33786;48.690;9.562;2023-05-28T14:13:23;25.90;52.50
48019;DHT22;33786;48.690;9.562;2023-05-28T14:15:54;25.70;51.80
48019;DHT22;33786;48.690;9.562;2023-05-28T14:18:21;25.90;52.60
48019;DHT22;33786;48.690;9.562;2023-05-28T14:20:48;25.70;53.30
48019;DHT22;33786;48.690;9.562;2023-05-28T14:23:15;25.60;51.80
48019;DHT22;33786;48.690;9.562;2023-05-28T14:25:42;25.70;51.80
48019;DHT22;33786;48.690;9.562;2023-05-28T14:28:08;25.80;48.90
48019;DHT22;33786;48.690;9.562;2023-05-28T14:30:38;25.60;48.10
48019;DHT22;33786;48.690;9.562;2023-05-28T14:33:04;25.50;49.10
48019;DHT22;33786;48.690;9.562;2023-05-28T14:35:31;25.80;49.50
48019;DHT22;33786;48.690;9.562;2023-05-28T14:37:58;25.90;47.80
48019;DHT22;33786;48.690;9.562;2023-05-28T14:40:25;25.90;48.20
48019;DHT22;33786;48.690;9.562;2023-05-28T14:42:52;25.70;48.20
48019;DHT22;33786;48.690;9.562;2023-05-28T14:45:19;25.70;50.00
48019;DHT22;33786;48.690;9.562;2023-05-28T14:47:46;25.70;50.30
48019;DHT22;33786;48.690;9.562;2023-05-28T14:50:12;25.70;50.90
48019;DHT22;33786;48.690;9.562;2023-05-28T14:52:39;25.70;50.30
48019;DHT22;33786;48.690;9.562;2023-05-28T14:55:07;25.90;50.70
48019;DHT22;33786;48.690;9.562;2023-05-28T14:57:34;26.00;51.40
48019;DHT22;33786;48.690;9.562;2023-05-28T15:00:06;25.90;50.50
48019;DHT22;33786;48.690;9.562;2023-05-28T15:02:33;25.90;51.70
48019;DHT22;33786;48.690;9.562;2023-05-28T15:05:01;25.70;50.80
48019;DHT22;33786;48.690;9.562;2023-05-28T15:07:30;25.80;49.80
48019;DHT22;33786;48.690;9.562;2023-05-28T15:09:57;26.00;51.00
48019;DHT22;33786;48.690;9.562;2023-05-28T15:12:24;26.10;51.50
48019;DHT22;33786;48.690;9.562;2023-05-28T15:14:51;26.00;51.80
48019;DHT22;33786;48.690;9.562;2023-05-28T15:17:18;25.70;52.00
48019;DHT22;33786;48.690;9.562;2023-05-28T15:19:47;25.70;51.40
48019;DHT22;33786;48.690;9.562;2023-05-28T15:22:15;25.50;51.70
48019;DHT22;33786;48.690;9.562;2023-05-28T15:24:42;25.30;51.90
48019;DHT22;33786;48.690;9.562;2023-05-28T15:27:09;25.20;51.70
48019;DHT22;33786;48.690;9.562;2023-05-28T15:29:36;25.30;52.00
48019;DHT22;33786;48.690;9.562;2023-05-28T15:32:05;25.30;54.00
48019;DHT22;33786;48.690;9.562;2023-05-28T15:34:31;25.00;53.90
48019;DHT22;33786;48.690;9.562;2023-05-28T15:36:58;25.00;54.90
48019;DHT22;33786;48.690;9.562;2023-05-28T15:39:25;24.90;54.40
48019;DHT22;33786;48.690;9.562;2023-05-28T15:41:52;24.80;53.60
48019;DHT22;33786;48.690;9.562;2023-05-28T15:44:20;24.90;54.20
48019;DHT22;33786;48.690;9.562;2023-05-28T15:46:47;24.90;55.00